Time;durP1;ratioP1;P1;durP2;ratioP2;P2;SDS_P1;SDS_P2;PMS_P1;PMS_P2;Temp;Humidity;BMP_temperature;BMP_pressure;BME280_temperature;BME280_humidity;BME280_pressure;Samples;Min_cycle;Max_cycle;Signal;HPM_P1;HPM_P2
2023/03/18 00:01:35;;;;;;;21.30;10.55;;;5.80;99.90;;;;;;7585793;19;20015;-72
2023/03/18 00:04:07;;;;;;;24.45;11.20;;;5.80;99.90;;;;;;7585927;19;20049;-72
2023/03/18 00:06:39;;;;;;;21.48;11.90;;;5.80;99.90;;;;;;7604539;19;20085;-72
2023/03/18 00:09:12;;;;;;;21.27;10.80;;;5.80;99.90;;;;;;7572676;19;20014;-74
2023/03/18 00:11:45;;;;;;;20.48;11.95;;;5.70;99.90;;;;;;7587144;19;20015;-75
2023/03/18 00:14:18;;;;;;;21.75;12.05;;;5.60;99.90;;;;;;7588411;19;20019;-74
2023/03/18 00:16:50;;;;;;;18.52;10.93;;;5.70;99.90;;;;;;7590363;19;21127;-74
2023/03/18 00:19:24;;;;;;;19.55;11.30;;;5.70;99.90;;;;;;7596587;19;20018;-74
2023/03/18 00:21:57;;;;;;;19.65;11.70;;;5.70;99.90;;;;;;7572713;19;20029;-75
2023/03/18 00:24:29;;;;;;;17.85;10.95;;;5.60;99.90;;;;;;7595201;19;20018;-74
2023/03/18 00:27:02;;;;;;;17.42;11.02;;;5.70;99.90;;;;;;7603141;19;20039;-74
2023/03/18 00:29:34;;;;;;;22.98;10.70;;;5.50;99.90;;;;;;7602842;19;20674;-74
2023/03/18 00:32:07;;;;;;;20.50;10.25;;;5.60;99.90;;;;;;7586076;19;20017;-74
2023/03/18 00:34:40;;;;;;;31.60;12.18;;;5.60;99.90;;;;;;7581883;19;21062;-74
2023/03/18 00:37:17;;;;;;;18.15;11.00;;;5.60;99.90;;;;;;7589280;19;20839;-73
2023/03/18 00:39:50;;;;;;;16.33;10.00;;;5.60;99.90;;;;;;7594248;19;20018;-74
2023/03/18 00:42:23;;;;;;;26.80;10.07;;;5.70;99.90;;;;;;7582496;19;20057;-74
2023/03/18 00:44:55;;;;;;;19.98;10.15;;;5.80;99.90;;;;;;7577013;19;20022;-72
2023/03/18 00:47:27;;;;;;;20.35;10.90;;;5.70;99.90;;;;;;7569455;19;20011;-73
2023/03/18 00:49:59;;;;;;;20.02;10.75;;;5.80;99.90;;;;;;7595300;19;20418;-73
2023/03/18 00:52:32;;;;;;;18.48;10.13;;;5.80;99.90;;;;;;7580040;19;20015;-73
2023/03/18 00:55:05;;;;;;;16.00;9.53;;;5.90;99.90;;;;;;7589860;19;20014;-73
2023/03/18 00:57:40;;;;;;;18.88;9.32;;;6.00;99.90;;;;;;7596238;19;21184;-73
2023/03/18 01:00:15;;;;;;;20.15;9.90;;;5.80;99.90;;;;;;7594316;19;20053;-73
2023/03/18 01:02:48;;;;;;;18.77;10.52;;;5.70;99.90;;;;;;7606763;19;20045;-73
2023/03/18 01:05:20;;;;;;;19.23;10.63;;;5.60;99.90;;;;;;7599742;19;20014;-73
2023/03/18 01:07:53;;;;;;;19.43;10.43;;;5.70;99.90;;;;;;7572341;19;20018;-75
2023/03/18 01:10:26;;;;;;;19.70;10.15;;;5.60;99.90;;;;;;7584003;19;20014;-72
2023/03/18 01:12:58;;;;;;;20.15;11.45;;;5.40;99.90;;;;;;7573844;19;20865;-74
2023/03/18 01:15:30;;;;;;;15.15;9.23;;;5.40;99.90;;;;;;7588551;19;20022;-73
2023/03/18 01:18:03;;;;;;;17.90;9.50;;;5.50;99.90;;;;;;7606358;19;21002;-74
2023/03/18 01:20:39;;;;;;;15.30;9.98;;;5.50;99.90;;;;;;7590459;19;20045;-74
2023/03/18 01:23:12;;;;;;;17.45;9.80;;;5.60;99.90;;;;;;7552361;19;20021;-72
2023/03/18 01:25:46;;;;;;;15.50;9.38;;;5.50;99.90;;;;;;7573802;19;20385;-73
2023/03/18 01:28:23;;;;;;;20.02;10.02;;;5.60;99.90;;;;;;7584187;19;20011;-72
2023/03/18 01:30:56;;;;;;;18.25;9.13;;;5.60;99.90;;;;;;7602637;19;20061;-74
2023/03/18 01:33:28;;;;;;;20.23;8.63;;;5.60;99.90;;;;;;7595884;19;20025;-72
2023/03/18 01:36:02;;;;;;;14.77;9.03;;;5.70;99.90;;;;;;7585080;19;20610;-73
2023/03/18 01:38:37;;;;;;;15.45;8.38;;;5.70;99.90;;;;;;7583978;19;20283;-72
2023/03/18 01:41:16;;;;;;;15.80;8.43;;;5.60;99.90;;;;;;7552023;19;20037;-73
2023/03/18 01:43:48;;;;;;;;;;;5.70;99.90;;;;;;7553113;19;20170;-73
2023/03/18 01:46:33;;;;;;;19.35;9.20;;;5.70;99.90;;;;;;7575705;19;19935;-73
2023/03/18 01:49:19;;;;;;;13.70;8.00;;;5.50;99.90;;;;;;7604728;19;20018;-73
2023/03/18 01:52:04;;;;;;;13.70;8.05;;;5.50;99.90;;;;;;7570193;19;21654;-73
2023/03/18 01:54:42;;;;;;;16.70;9.45;;;5.50;99.90;;;;;;7569082;19;20025;-73
2023/03/18 01:57:16;;;;;;;14.23;9.05;;;5.40;99.90;;;;;;7578034;19;20539;-74
2023/03/18 01:59:51;;;;;;;16.05;8.02;;;5.40;99.90;;;;;;7585292;19;20011;-74
2023/03/18 02:02:24;;;;;;;14.45;8.60;;;5.40;99.90;;;;;;7585015;19;20014;-73
2023/03/18 02:05:01;;;;;;;14.02;8.70;;;5.40;99.90;;;;;;7593927;19;20019;-73
2023/03/18 02:07:34;;;;;;;12.60;7.57;;;5.50;99.90;;;;;;7585395;19;20101;-73
2023/03/18 02:10:15;;;;;;;14.20;7.88;;;5.60;99.90;;;;;;7581331;19;20010;-73
2023/03/18 02:13:01;;;;;;;15.35;6.85;;;5.70;99.90;;;;;;7579415;19;20040;-74
2023/03/18 02:15:51;;;;;;;18.25;7.80;;;5.70;99.90;;;;;;7572898;19;20014;-74
2023/03/18 02:18:33;;;;;;;10.95;7.30;;;5.80;99.90;;;;;;7590551;19;20042;-74
2023/03/18 02:21:24;;;;;;;14.85;6.90;;;5.90;99.90;;;;;;7599842;19;20011;-74
2023/03/18 02:24:14;;;;;;;13.15;7.00;;;5.90;99.90;;;;;;7596341;19;20558;-73
2023/03/18 02:26:57;;;;;;;12.63;7.20;;;6.00;99.90;;;;;;7598709;19;20029;-75
2023/03/18 02:29:39;;;;;;;15.10;8.15;;;6.00;99.90;;;;;;7597097;19;20047;-74
2023/03/18 02:32:16;;;;;;;11.38;7.15;;;6.10;99.90;;;;;;7599166;19;20022;-74
2023/03/18 02:34:49;;;;;;;14.68;7.10;;;6.10;99.90;;;;;;7590135;19;20029;-75
2023/03/18 02:37:21;;;;;;;9.73;6.13;;;6.20;99.90;;;;;;7589609;19;20497;-75
2023/03/18 02:39:54;;;;;;;13.82;7.28;;;6.20;99.90;;;;;;7584536;19;20404;-75
2023/03/18 02:42:30;;;;;;;11.18;6.82;;;6.20;99.90;;;;;;7591647;19;20018;-75
2023/03/18 02:45:12;;;;;;;14.02;6.40;;;6.30;99.90;;;;;;7595402;19;20625;-74
2023/03/18 02:47:57;;;;;;;13.23;6.93;;;6.40;99.90;;;;;;7570771;19;20002;-74
2023/03/18 02:50:30;;;;;;;10.82;6.28;;;6.40;99.90;;;;;;7589765;19;20105;-75
2023/03/18 02:53:04;;;;;;;11.73;5.95;;;6.40;99.90;;;;;;7584099;19;20067;-75
2023/03/18 02:55:36;;;;;;;10.25;5.68;;;6.40;99.90;;;;;;7596484;19;20025;-74
2023/03/18 02:58:08;;;;;;;13.10;6.18;;;6.30;99.90;;;;;;7599731;19;20061;-75
2023/03/18 03:00:48;;;;;;;9.23;5.53;;;6.40;99.90;;;;;;7593694;19;20022;-76
2023/03/18 03:03:21;;;;;;;14.15;6.68;;;6.40;99.90;;;;;;7631870;19;20014;-72
2023/03/18 03:06:04;;;;;;;10.52;6.40;;;6.30;99.90;;;;;;7619618;19;20696;-74
2023/03/18 03:08:37;;;;;;;11.05;5.55;;;6.30;99.90;;;;;;7619610;19;20052;-72
2023/03/18 03:11:23;;;;;;;9.00;5.07;;;6.30;99.90;;;;;;7614786;19;20031;-72
2023/03/18 03:14:10;;;;;;;9.27;5.20;;;6.30;99.90;;;;;;7616048;19;20034;-73
2023/03/18 03:16:49;;;;;;;7.80;4.80;;;6.50;99.90;;;;;;7629801;19;20025;-72
2023/03/18 03:19:29;;;;;;;9.35;4.95;;;6.60;99.90;;;;;;7626324;19;20014;-72
2023/03/18 03:22:04;;;;;;;7.72;5.03;;;6.70;99.90;;;;;;7631956;19;20039;-74
2023/03/18 03:24:36;;;;;;;8.80;5.63;;;6.70;99.90;;;;;;7620971;19;20082;-76
2023/03/18 03:27:11;;;;;;;11.68;5.85;;;6.60;99.90;;;;;;7607200;19;20063;-73
2023/03/18 03:29:44;;;;;;;8.88;4.68;;;6.50;99.90;;;;;;7608744;19;20039;-73
2023/03/18 03:32:16;;;;;;;9.65;4.93;;;6.60;99.90;;;;;;7607212;19;20978;-74
2023/03/18 03:34:51;;;;;;;9.52;4.75;;;6.70;99.90;;;;;;7576007;19;20026;-72
2023/03/18 03:37:23;;;;;;;8.10;4.10;;;6.80;99.90;;;;;;7580805;19;20023;-72
2023/03/18 03:39:58;;;;;;;8.95;4.47;;;6.90;99.90;;;;;;7573871;19;20018;-75
2023/03/18 03:42:31;;;;;;;7.22;4.32;;;7.00;99.90;;;;;;7589136;19;20482;-76
2023/03/18 03:45:06;;;;;;;7.88;4.60;;;7.00;99.90;;;;;;7572062;19;20021;-75
2023/03/18 03:47:39;;;;;;;7.05;4.40;;;6.90;99.90;;;;;;7610749;19;20067;-76
2023/03/18 03:50:15;;;;;;;10.38;4.80;;;6.80;99.90;;;;;;7592825;19;21334;-74
2023/03/18 03:52:48;;;;;;;6.68;4.30;;;6.90;99.90;;;;;;7562222;19;20025;-73
2023/03/18 03:55:21;;;;;;;10.38;4.43;;;6.90;99.90;;;;;;7599887;19;20094;-73
2023/03/18 03:57:54;;;;;;;9.10;4.57;;;7.00;99.90;;;;;;7617038;19;20015;-73
2023/03/18 04:00:27;;;;;;;7.97;4.53;;;7.10;99.90;;;;;;7601803;19;20045;-73
2023/03/18 04:02:59;;;;;;;7.70;4.70;;;6.90;99.90;;;;;;7595359;19;20033;-73
2023/03/18 04:05:32;;;;;;;10.48;4.50;;;6.70;99.90;;;;;;7597072;19;20029;-74
2023/03/18 04:08:05;;;;;;;8.13;4.90;;;6.60;99.90;;;;;;7602153;19;20897;-74
2023/03/18 04:10:39;;;;;;;13.95;4.03;;;6.60;99.90;;;;;;7598087;19;20018;-74
2023/03/18 04:13:14;;;;;;;9.60;5.35;;;6.60;99.90;;;;;;7606533;19;20018;-73
2023/03/18 04:15:46;;;;;;;7.95;4.72;;;6.50;99.90;;;;;;7612114;19;20102;-72
2023/03/18 04:18:22;;;;;;;11.65;5.50;;;6.40;99.90;;;;;;7600331;19;20029;-73
2023/03/18 04:20:54;;;;;;;6.65;4.93;;;6.40;99.90;;;;;;7609491;19;20018;-74
2023/03/18 04:23:40;;;;;;;8.98;5.22;;;6.30;99.90;;;;;;7602672;19;20026;-74
2023/03/18 04:26:13;;;;;;;6.78;4.30;;;6.20;99.90;;;;;;7608713;19;20423;-73
2023/03/18 04:28:45;;;;;;;8.13;4.23;;;6.20;99.90;;;;;;7609338;19;20039;-72
2023/03/18 04:31:19;;;;;;;8.38;4.90;;;6.10;99.90;;;;;;7605185;19;20283;-72
2023/03/18 04:33:52;;;;;;;8.60;5.40;;;6.10;99.90;;;;;;7600568;19;20047;-72
2023/03/18 04:36:25;;;;;;;8.75;4.93;;;6.00;99.90;;;;;;7604830;19;20034;-72
2023/03/18 04:38:58;;;;;;;8.23;5.13;;;6.00;99.90;;;;;;7605636;19;20621;-72
2023/03/18 04:41:31;;;;;;;12.95;4.70;;;5.90;99.90;;;;;;7597254;19;21005;-72
2023/03/18 04:44:07;;;;;;;10.32;4.63;;;5.90;99.90;;;;;;7607943;19;20069;-72
2023/03/18 04:46:46;;;;;;;12.15;4.65;;;5.80;99.90;;;;;;7602637;19;20124;-71
2023/03/18 04:49:19;;;;;;;7.75;4.30;;;5.90;99.90;;;;;;7598554;19;20025;-72
2023/03/18 04:51:52;;;;;;;9.88;4.80;;;6.00;99.90;;;;;;7602470;19;20022;-72
2023/03/18 04:54:33;;;;;;;8.82;4.90;;;6.00;99.90;;;;;;7592072;19;20015;-72
2023/03/18 04:57:08;;;;;;;8.20;4.43;;;5.90;99.90;;;;;;7608286;19;20014;-71
2023/03/18 04:59:45;;;;;;;9.70;4.90;;;5.90;99.90;;;;;;7606990;19;20030;-72
2023/03/18 05:02:18;;;;;;;7.68;4.28;;;5.90;99.90;;;;;;7591175;19;20021;-73
2023/03/18 05:04:51;;;;;;;7.93;4.82;;;5.80;99.90;;;;;;7596913;19;20020;-73
2023/03/18 05:07:23;;;;;;;8.60;5.03;;;5.80;99.90;;;;;;7604347;19;20663;-72
2023/03/18 05:10:05;;;;;;;12.35;5.07;;;5.70;99.90;;;;;;7605644;19;20487;-72
2023/03/18 05:12:37;;;;;;;9.60;5.15;;;5.70;99.90;;;;;;7595429;19;20375;-72
2023/03/18 05:15:13;;;;;;;9.63;4.85;;;5.70;99.90;;;;;;7595195;19;20030;-73
2023/03/18 05:17:51;;;;;;;11.68;4.78;;;5.70;99.90;;;;;;7601983;19;20050;-73
2023/03/18 05:20:24;;;;;;;9.27;4.50;;;5.70;99.90;;;;;;7582289;19;20363;-73
2023/03/18 05:22:57;;;;;;;8.00;4.55;;;5.70;99.90;;;;;;7596656;19;20022;-73
2023/03/18 05:25:39;;;;;;;8.80;4.72;;;5.60;99.90;;;;;;7600659;19;20031;-73
2023/03/18 05:28:11;;;;;;;8.65;4.75;;;5.60;99.90;;;;;;7602498;19;20082;-73
2023/03/18 05:30:53;;;;;;;9.23;4.55;;;5.60;99.90;;;;;;7607195;19;20022;-73
2023/03/18 05:33:25;;;;;;;10.02;5.07;;;5.50;99.90;;;;;;7592837;19;20014;-73
2023/03/18 05:36:00;;;;;;;7.15;4.18;;;5.50;99.90;;;;;;7604808;19;20045;-73
2023/03/18 05:38:39;;;;;;;9.45;3.90;;;5.50;99.90;;;;;;7585262;19;20502;-72
2023/03/18 05:41:12;;;;;;;7.15;4.30;;;5.50;99.90;;;;;;7599997;19;20026;-72
2023/03/18 05:43:47;;;;;;;7.38;4.20;;;5.50;99.90;;;;;;7600453;19;20025;-72
2023/03/18 05:46:19;;;;;;;10.60;4.40;;;5.60;99.90;;;;;;7614752;19;20095;-73
2023/03/18 05:49:01;;;;;;;8.93;4.80;;;5.60;99.90;;;;;;7601764;19;20137;-74
2023/03/18 05:51:43;;;;;;;9.93;3.97;;;5.70;99.90;;;;;;7601555;19;20011;-73
2023/03/18 05:54:20;;;;;;;7.30;4.07;;;5.70;99.90;;;;;;7601829;19;20727;-78
2023/03/18 05:56:53;;;;;;;7.28;4.28;;;5.70;99.90;;;;;;7610953;19;20021;-79
2023/03/18 05:59:26;;;;;;;11.48;4.55;;;5.70;99.90;;;;;;7608465;19;20026;-78
2023/03/18 06:02:02;;;;;;;7.45;4.00;;;5.80;99.90;;;;;;7586703;19;20026;-77
2023/03/18 06:04:34;;;;;;;9.02;4.40;;;5.90;99.90;;;;;;7600879;19;20979;-76
2023/03/18 06:07:08;;;;;;;;;;;5.90;99.90;;;;;;7601961;19;20024;-77
2023/03/18 06:09:40;;;;;;;8.60;3.85;;;5.80;99.90;;;;;;7605350;19;19957;-76
2023/03/18 06:12:12;;;;;;;12.45;4.40;;;5.70;99.90;;;;;;7603971;19;20029;-76
2023/03/18 06:14:45;;;;;;;7.13;4.05;;;5.80;99.90;;;;;;7605512;19;20018;-74
2023/03/18 06:17:18;;;;;;;8.50;4.47;;;5.80;99.90;;;;;;7607946;19;20022;-75
2023/03/18 06:19:50;;;;;;;12.20;4.20;;;5.70;99.90;;;;;;7608568;19;20682;-75
2023/03/18 06:22:22;;;;;;;15.18;3.97;;;5.70;99.90;;;;;;7604517;19;20018;-75
2023/03/18 06:24:55;;;;;;;7.97;4.00;;;5.70;99.90;;;;;;7618236;19;20053;-75
2023/03/18 06:27:27;;;;;;;7.82;4.38;;;5.70;99.90;;;;;;7614043;19;20098;-74
2023/03/18 06:30:03;;;;;;;7.97;4.35;;;5.80;99.90;;;;;;7614369;19;20026;-75
2023/03/18 06:32:39;;;;;;;9.40;4.68;;;5.90;99.90;;;;;;7606302;19;20025;-76
2023/03/18 06:35:13;;;;;;;8.05;4.50;;;5.90;99.90;;;;;;7600390;19;20023;-76
2023/03/18 06:37:45;;;;;;;;;;;6.00;99.90;;;;;;7606318;19;20634;-76
2023/03/18 06:40:18;;;;;;;9.60;5.30;;;5.90;99.90;;;;;;7603599;19;19963;-75
2023/03/18 06:42:52;;;;;;;10.23;4.25;;;6.00;99.90;;;;;;7605122;19;20094;-75
2023/03/18 06:45:39;;;;;;;8.65;4.22;;;6.30;99.90;;;;;;7605579;19;20029;-76
2023/03/18 06:48:13;;;;;;;9.02;5.15;;;6.40;99.90;;;;;;7609663;19;20033;-75
2023/03/18 06:50:48;;;;;;;5.57;3.45;;;6.60;99.90;;;;;;7607216;19;20014;-75
2023/03/18 06:53:26;;;;;;;7.47;4.30;;;6.70;99.90;;;;;;7599407;19;20025;-76
2023/03/18 06:55:59;;;;;;;11.55;4.68;;;6.80;99.90;;;;;;7608660;19;20045;-76
2023/03/18 06:58:39;;;;;;;9.02;4.30;;;6.90;99.90;;;;;;7603499;19;20082;-73
2023/03/18 07:01:13;;;;;;;7.55;4.00;;;6.90;99.90;;;;;;7612147;19;20760;-73
2023/03/18 07:03:48;;;;;;;7.28;4.15;;;6.90;99.90;;;;;;7611164;19;20754;-74
2023/03/18 07:06:21;;;;;;;12.18;5.72;;;6.90;99.90;;;;;;7591272;19;20032;-72
2023/03/18 07:08:53;;;;;;;8.60;4.90;;;7.10;99.90;;;;;;7597250;19;20018;-72
2023/03/18 07:11:26;;;;;;;15.25;4.60;;;7.30;99.90;;;;;;7611385;19;20014;-71
2023/03/18 07:14:00;;;;;;;;;;;7.40;99.90;;;;;;7592338;19;20042;-71
2023/03/18 07:16:36;;;;;;;9.10;4.63;;;7.50;99.90;;;;;;7607276;19;20399;-72
2023/03/18 07:19:10;;;;;;;9.27;4.80;;;7.50;99.90;;;;;;7609323;19;20067;-72
2023/03/18 07:21:44;;;;;;;10.20;5.07;;;7.70;99.90;;;;;;7597382;19;20022;-71
2023/03/18 07:24:19;;;;;;;19.00;4.70;;;7.70;99.90;;;;;;7603313;19;20003;-74
2023/03/18 07:26:52;;;;;;;13.70;4.60;;;7.80;99.90;;;;;;7584431;19;20787;-75
2023/03/18 07:29:25;;;;;;;14.15;3.97;;;7.90;99.90;;;;;;7604695;19;20022;-74
2023/03/18 07:32:00;;;;;;;13.00;4.18;;;8.00;99.90;;;;;;7588208;19;20018;-76
2023/03/18 07:34:35;;;;;;;14.73;5.03;;;8.10;99.90;;;;;;7597773;19;20007;-75
2023/03/18 07:37:08;;;;;;;22.70;5.07;;;8.20;99.90;;;;;;7598241;19;20007;-76
2023/03/18 07:39:42;;;;;;;14.02;4.47;;;8.40;99.90;;;;;;7604580;19;20010;-76
2023/03/18 07:42:15;;;;;;;15.07;4.10;;;8.50;99.90;;;;;;7607271;19;20491;-76
2023/03/18 07:44:49;;;;;;;12.15;3.97;;;8.60;99.90;;;;;;7606555;19;20035;-74
2023/03/18 07:47:23;;;;;;;8.82;3.75;;;8.80;99.90;;;;;;7621428;19;20020;-76
2023/03/18 07:49:56;;;;;;;12.52;3.95;;;8.90;99.90;;;;;;7612125;19;20011;-76
2023/03/18 07:52:28;;;;;;;10.50;4.18;;;9.00;99.90;;;;;;7613610;19;20022;-76
2023/03/18 07:55:01;;;;;;;16.07;4.03;;;9.10;99.90;;;;;;7618151;19;20757;-74
2023/03/18 07:57:34;;;;;;;9.05;3.90;;;9.30;99.90;;;;;;7615670;19;20964;-76
2023/03/18 08:00:09;;;;;;;11.68;3.83;;;9.40;99.90;;;;;;7602995;19;20018;-75
2023/03/18 08:02:45;;;;;;;10.80;3.58;;;9.50;99.90;;;;;;7614306;19;20014;-75
2023/03/18 08:05:18;;;;;;;9.18;3.70;;;9.60;99.90;;;;;;7616860;19;20806;-77
2023/03/18 08:07:50;;;;;;;8.38;4.43;;;9.80;97.60;;;;;;7622745;19;20053;-76
2023/03/18 08:10:24;;;;;;;10.80;6.05;;;9.90;97.80;;;;;;7623319;19;20015;-76
2023/03/18 08:12:56;;;;;;;6.40;3.42;;;10.00;97.40;;;;;;7621364;19;20047;-77
2023/03/18 08:15:29;;;;;;;6.70;3.43;;;10.20;95.50;;;;;;7624534;19;20022;-76
2023/03/18 08:18:01;;;;;;;46.58;13.13;;;10.20;94.90;;;;;;7618271;19;20015;-77
2023/03/18 08:20:34;;;;;;;44.65;16.30;;;10.40;95.30;;;;;;7623601;19;20820;-77
2023/03/18 08:23:07;;;;;;;16.38;6.15;;;10.50;94.90;;;;;;7612166;19;20095;-76
2023/03/18 08:25:39;;;;;;;9.73;3.83;;;10.60;92.50;;;;;;7617137;19;20018;-76
2023/03/18 08:28:11;;;;;;;8.27;3.40;;;10.70;91.60;;;;;;7610422;19;20018;-77
2023/03/18 08:30:44;;;;;;;7.32;2.97;;;10.90;90.30;;;;;;7609940;19;20021;-76
2023/03/18 08:33:16;;;;;;;7.68;3.33;;;11.00;89.30;;;;;;7610976;19;20022;-76
2023/03/18 08:35:49;;;;;;;5.78;3.30;;;11.10;88.30;;;;;;7603801;19;20306;-74
2023/03/18 08:38:23;;;;;;;4.72;2.28;;;11.20;86.40;;;;;;7611109;19;20094;-76
2023/03/18 08:40:56;;;;;;;7.80;2.47;;;11.40;83.10;;;;;;7600546;19;20595;-75
2023/03/18 08:43:28;;;;;;;5.78;3.10;;;11.40;81.10;;;;;;7604469;19;20091;-75
2023/03/18 08:46:01;;;;;;;4.07;2.05;;;11.60;81.30;;;;;;7605519;19;20344;-75
2023/03/18 08:48:34;;;;;;;8.33;2.40;;;11.70;79.40;;;;;;7606286;19;20102;-74
2023/03/18 08:51:09;;;;;;;3.88;2.53;;;11.80;77.50;;;;;;7611487;19;20023;-77
2023/03/18 08:53:42;;;;;;;5.60;2.50;;;11.90;77.20;;;;;;7608834;19;20048;-75
2023/03/18 08:56:14;;;;;;;6.93;2.17;;;12.00;77.00;;;;;;7605846;19;20018;-75
2023/03/18 08:58:47;;;;;;;3.90;2.30;;;12.10;76.30;;;;;;7601047;19;20014;-75
2023/03/18 09:01:21;;;;;;;6.33;2.37;;;12.30;74.60;;;;;;7607042;19;20015;-74
2023/03/18 09:03:56;;;;;;;7.28;2.45;;;12.30;75.30;;;;;;7597509;19;20038;-75
2023/03/18 09:06:29;;;;;;;11.35;2.97;;;12.40;74.20;;;;;;7603208;19;20018;-74
2023/03/18 09:09:01;;;;;;;4.43;2.55;;;12.50;73.90;;;;;;7603789;19;20310;-74
2023/03/18 09:11:35;;;;;;;5.00;2.20;;;12.60;69.90;;;;;;7602283;19;20515;-74
2023/03/18 09:14:07;;;;;;;5.43;2.55;;;12.70;72.30;;;;;;7603603;19;20021;-74
2023/03/18 09:16:40;;;;;;;6.97;2.63;;;12.80;70.10;;;;;;7596354;19;20015;-76
2023/03/18 09:19:12;;;;;;;7.60;2.92;;;12.80;69.80;;;;;;7597460;19;20014;-74
2023/03/18 09:21:45;;;;;;;7.78;2.67;;;12.90;71.00;;;;;;7594250;19;20101;-74
2023/03/18 09:24:17;;;;;;;8.52;2.88;;;13.00;70.50;;;;;;7595337;19;20022;-74
2023/03/18 09:26:50;;;;;;;6.22;2.63;;;13.10;69.90;;;;;;7588129;19;20815;-76
2023/03/18 09:29:22;;;;;;;10.80;2.78;;;13.30;71.20;;;;;;7608300;19;20102;-76
2023/03/18 09:31:55;;;;;;;5.45;2.83;;;13.40;70.40;;;;;;7575421;19;20206;-76
2023/03/18 09:34:27;;;;;;;10.13;3.13;;;13.40;69.70;;;;;;7579651;19;20367;-76
2023/03/18 09:36:59;;;;;;;5.60;2.50;;;13.50;68.70;;;;;;7573865;19;20593;-77
2023/03/18 09:39:32;;;;;;;9.38;3.70;;;13.50;68.20;;;;;;7598979;19;20014;-77
2023/03/18 09:42:28;;;;;;;4.60;2.47;;;13.60;69.10;;;;;;7570286;19;20018;-76
2023/03/18 09:45:09;;;;;;;5.90;2.58;;;13.70;69.40;;;;;;7561795;19;20021;-77
2023/03/18 09:47:53;;;;;;;9.60;2.80;;;13.70;67.00;;;;;;7593053;19;20022;-76
2023/03/18 09:50:38;;;;;;;8.52;4.60;;;13.80;66.90;;;;;;7584095;19;20906;-76
2023/03/18 09:53:39;;;;;;;11.38;3.38;;;13.90;68.00;;;;;;7572926;19;20043;-76
2023/03/18 09:56:24;;;;;;;6.90;2.92;;;13.90;66.80;;;;;;7598393;19;20022;-77
2023/03/18 09:59:04;;;;;;;6.38;2.78;;;14.00;67.00;;;;;;7596471;19;20010;-76
2023/03/18 10:01:39;;;;;;;7.30;3.30;;;14.00;66.00;;;;;;7594837;19;20117;-77
2023/03/18 10:04:20;;;;;;;9.00;2.90;;;14.10;65.70;;;;;;7602896;19;20011;-77
2023/03/18 10:06:59;;;;;;;6.97;2.92;;;14.10;65.50;;;;;;7597012;19;20019;-76
2023/03/18 10:10:06;;;;;;;11.23;3.20;;;14.20;65.80;;;;;;7604169;19;20031;-76
2023/03/18 10:12:44;;;;;;;12.27;3.28;;;14.30;65.70;;;;;;7604341;19;20022;-75
2023/03/18 10:15:35;;;;;;;11.88;5.30;;;14.40;63.90;;;;;;7601778;19;20114;-77
2023/03/18 10:18:32;;;;;;;8.65;3.97;;;14.40;63.50;;;;;;7605471;19;20026;-77
2023/03/18 10:21:31;;;;;;;11.55;4.70;;;14.60;64.60;;;;;;7603611;19;20642;-76
2023/03/18 10:24:30;;;;;;;7.72;3.55;;;14.80;63.80;;;;;;7583975;19;20074;-76
2023/03/18 10:27:33;;;;;;;9.65;2.92;;;14.90;63.80;;;;;;7603438;19;20394;-77
2023/03/18 10:30:31;;;;;;;5.45;2.80;;;15.00;61.50;;;;;;7612233;19;20092;-75
2023/03/18 10:33:25;;;;;;;8.70;3.28;;;15.00;59.30;;;;;;7615450;19;20018;-77
2023/03/18 10:36:19;;;;;;;7.97;2.90;;;14.90;59.30;;;;;;7610380;19;20118;-77
2023/03/18 10:38:53;;;;;;;10.83;3.37;;;14.90;59.90;;;;;;7609369;19;20014;-75
2023/03/18 10:41:35;;;;;;;7.53;2.90;;;14.90;60.70;;;;;;7612885;19;20684;-76
2023/03/18 10:44:31;;;;;;;6.65;3.30;;;15.00;61.40;;;;;;7609302;19;20598;-78
2023/03/18 10:47:14;;;;;;;13.07;2.67;;;15.10;59.30;;;;;;7614751;19;20040;-76
2023/03/18 10:49:56;;;;;;;4.25;2.47;;;15.20;59.00;;;;;;7605023;19;21919;-76
2023/03/18 10:52:45;;;;;;;5.82;2.17;;;15.30;59.70;;;;;;7609799;19;20018;-76
2023/03/18 10:55:27;;;;;;;6.68;2.20;;;15.20;55.90;;;;;;7614565;19;20014;-75
2023/03/18 10:58:13;;;;;;;4.47;1.87;;;15.30;57.70;;;;;;7608028;19;20026;-76
2023/03/18 11:00:46;;;;;;;7.78;2.10;;;15.40;56.00;;;;;;7601953;19;20571;-78
2023/03/18 11:04:04;;;;;;;4.47;2.50;;;15.40;56.70;;;;;;7615986;19;20482;-75
2023/03/18 11:06:54;;;;;;;5.50;2.47;;;15.50;57.00;;;;;;7641828;19;20044;-77
2023/03/18 11:09:41;;;;;;;8.10;2.40;;;15.50;56.20;;;;;;7650241;19;20043;-77
2023/03/18 11:12:40;;;;;;;9.20;2.67;;;15.70;56.70;;;;;;7647937;19;20038;-76
2023/03/18 11:15:22;;;;;;;3.83;2.17;;;15.80;55.00;;;;;;7648692;19;20022;-77
2023/03/18 11:18:01;;;;;;;7.90;1.98;;;15.80;55.50;;;;;;7637247;19;20011;-76
2023/03/18 11:24:23;;;;;;;7.70;2.67;;;16.20;56.10;;;;;;7636087;19;20021;-76
2023/03/18 11:26:56;;;;;;;6.80;2.67;;;16.40;55.30;;;;;;7640457;19;20015;-77
2023/03/18 11:30:06;;;;;;;5.20;2.70;;;16.40;55.00;;;;;;7639103;19;20010;-77
2023/03/18 11:36:22;;;;;;;6.07;2.58;;;16.50;56.00;;;;;;7611172;19;20025;-77
2023/03/18 11:38:58;;;;;;;6.93;2.22;;;16.80;53.10;;;;;;7612617;19;20055;-75
2023/03/18 11:41:30;;;;;;;7.03;2.75;;;17.10;53.40;;;;;;7611727;19;20018;-77
2023/03/18 11:44:06;;;;;;;4.50;2.35;;;17.80;51.10;;;;;;7607474;19;20025;-76
2023/03/18 11:46:44;;;;;;;6.00;2.58;;;18.50;50.00;;;;;;7595178;19;20025;-76
2023/03/18 11:49:21;;;;;;;11.20;3.00;;;19.60;49.40;;;;;;7611294;19;20056;-76
2023/03/18 11:52:13;;;;;;;9.05;2.40;;;20.50;48.80;;;;;;7612267;19;20036;-75
2023/03/18 11:55:02;;;;;;;4.28;2.05;;;20.80;46.00;;;;;;7607011;19;20022;-77
2023/03/18 11:58:14;;;;;;;5.25;2.30;;;21.30;44.90;;;;;;7623319;19;20022;-78
2023/03/18 12:01:16;;;;;;;6.55;2.30;;;21.60;44.60;;;;;;7602707;19;20049;-78
2023/03/18 12:03:54;;;;;;;5.70;2.50;;;22.00;44.20;;;;;;7614391;19;20014;-77
2023/03/18 12:06:29;;;;;;;8.45;2.50;;;22.40;43.10;;;;;;7616262;19;20056;-78
2023/03/18 12:09:30;;;;;;;4.47;2.30;;;22.90;43.10;;;;;;7615887;19;20591;-76
2023/03/18 12:12:07;;;;;;;5.60;2.60;;;23.00;42.00;;;;;;7613930;19;20895;-77
2023/03/18 12:15:17;;;;;;;4.80;2.78;;;23.00;41.70;;;;;;7653413;19;20032;-77
2023/03/18 12:22:15;;;;;;;5.72;2.70;;;23.40;40.40;;;;;;7662448;19;20033;-77
2023/03/18 12:25:12;;;;;;;7.50;2.45;;;23.60;40.60;;;;;;7663995;19;20010;-77
2023/03/18 12:27:53;;;;;;;5.90;1.92;;;24.00;40.70;;;;;;7660414;19;20018;-77
2023/03/18 12:31:10;;;;;;;8.82;2.45;;;24.60;40.00;;;;;;7666383;19;20067;-77
2023/03/18 12:34:06;;;;;;;4.85;2.20;;;24.50;40.10;;;;;;7661160;19;20030;-77
2023/03/18 12:36:57;;;;;;;3.60;1.90;;;24.80;39.00;;;;;;7662546;19;20007;-76
2023/03/18 12:43:30;;;;;;;3.45;2.00;;;24.90;38.00;;;;;;7662025;19;20049;-78
2023/03/18 12:46:32;;;;;;;5.28;2.35;;;25.40;37.70;;;;;;7612738;19;20043;-77
2023/03/18 12:49:13;;;;;;;5.53;2.20;;;25.20;37.00;;;;;;7609589;19;20013;-78
2023/03/18 12:51:58;;;;;;;6.07;2.35;;;25.10;37.20;;;;;;7609677;19;22334;-77
2023/03/18 12:54:37;;;;;;;4.13;2.20;;;25.50;37.50;;;;;;7608089;19;20019;-78
2023/03/18 12:57:31;;;;;;;6.43;2.50;;;25.90;36.90;;;;;;7616004;19;20010;-78
2023/03/18 13:00:29;;;;;;;5.38;2.33;;;26.30;36.90;;;;;;7609763;19;20022;-78
2023/03/18 13:03:31;;;;;;;4.93;2.60;;;26.40;36.10;;;;;;7638540;19;20044;-77
2023/03/18 13:07:20;;;;;;;7.10;2.58;;;26.30;36.20;;;;;;7651359;19;20009;-77
2023/03/18 13:14:23;;;;;;;5.78;2.70;;;26.70;36.50;;;;;;7640401;19;20047;-77
2023/03/18 13:17:37;;;;;;;5.07;2.60;;;26.80;36.00;;;;;;7642907;19;20123;-80
2023/03/18 13:20:48;;;;;;;6.05;2.28;;;27.20;35.40;;;;;;7622109;19;20071;-77
2023/03/18 13:23:41;;;;;;;6.53;2.92;;;27.30;35.10;;;;;;7609386;19;20011;-77
2023/03/18 13:26:53;;;;;;;4.97;2.50;;;27.40;35.60;;;;;;7603890;19;20022;-78
2023/03/18 13:29:54;;;;;;;5.15;2.50;;;27.60;34.50;;;;;;7582112;19;20298;-76
2023/03/18 13:35:58;;;;;;;6.88;2.60;;;27.70;35.30;;;;;;7634553;19;20014;-77
2023/03/18 13:38:48;;;;;;;6.22;2.20;;;27.60;34.80;;;;;;7605577;19;20026;-76
2023/03/18 13:41:54;;;;;;;8.07;2.80;;;28.00;34.60;;;;;;7606481;19;20022;-77
2023/03/18 13:44:48;;;;;;;8.27;2.78;;;27.50;33.90;;;;;;7608437;19;20584;-78
2023/03/18 13:47:48;;;;;;;5.63;2.55;;;28.20;34.30;;;;;;7641346;19;20034;-77
2023/03/18 13:51:08;;;;;;;8.38;2.53;;;28.40;34.80;;;;;;7639170;19;20346;-77
2023/03/18 13:54:04;;;;;;;6.15;2.58;;;28.90;33.90;;;;;;7648370;19;20014;-78
2023/03/18 14:01:05;;;;;;;6.37;3.37;;;29.50;33.20;;;;;;7638095;19;20022;-80
2023/03/18 14:07:43;;;;;;;;;;;;;;;;;;;;;
2023/03/18 14:10:26;;;;;;;5.87;3.23;;;30.30;32.70;;;;;;7650477;19;20064;-76
2023/03/18 14:16:56;;;;;;;8.65;2.83;;;29.80;32.40;;;;;;7646951;19;20007;-77
2023/03/18 14:19:44;;;;;;;5.68;3.40;;;30.00;32.20;;;;;;7650104;19;20023;-77
2023/03/18 14:22:46;;;;;;;6.45;2.70;;;29.50;32.30;;;;;;7652109;19;20627;-77
2023/03/18 14:25:53;;;;;;;;;;;;;;;;;;;;;
2023/03/18 14:29:30;;;;;;;8.70;3.40;;;29.30;32.40;;;;;;7616655;19;20497;-77